createdAt,value
2022-09-03T00:02:12.376Z,15.80
2022-09-03T00:04:57.364Z,15.70
2022-09-03T00:07:30.816Z,15.70
2022-09-03T00:10:02.985Z,15.60
2022-09-03T00:12:37.302Z,15.60
2022-09-03T00:15:07.121Z,15.60
2022-09-03T00:17:42.440Z,15.50
2022-09-03T00:20:17.912Z,15.50
2022-09-03T00:22:54.670Z,15.50
2022-09-03T00:25:33.796Z,15.40
2022-09-03T00:28:06.778Z,15.40
2022-09-03T00:30:35.100Z,15.40
2022-09-03T00:33:13.760Z,15.40
2022-09-03T00:35:50.377Z,15.40
2022-09-03T00:38:17.471Z,15.30
2022-09-03T00:41:08.618Z,15.30
2022-09-03T00:44:02.677Z,15.40
2022-09-03T00:46:49.028Z,15.40
2022-09-03T00:49:21.647Z,15.40
2022-09-03T00:52:11.396Z,15.30
2022-09-03T00:55:06.515Z,15.30
2022-09-03T00:57:57.902Z,15.30
2022-09-03T01:00:24.742Z,15.30
2022-09-03T01:03:09.325Z,15.20
2022-09-03T01:05:42.265Z,15.20
2022-09-03T01:08:32.257Z,15.20
2022-09-03T01:11:16.911Z,15.20
2022-09-03T01:14:06.461Z,15.20
2022-09-03T01:16:48.389Z,15.20
2022-09-03T01:19:35.610Z,15.20
2022-09-03T01:22:26.670Z,15.20
2022-09-03T01:25:11.931Z,15.20
2022-09-03T01:27:41.893Z,15.20
2022-09-03T01:30:18.432Z,15.30
2022-09-03T01:33:14.130Z,15.30
2022-09-03T01:35:48.368Z,15.30
2022-09-03T01:38:34.848Z,15.30
2022-09-03T01:41:24.916Z,15.40
2022-09-03T01:43:59.163Z,15.40
2022-09-03T01:46:30.370Z,15.50
2022-09-03T01:49:13.119Z,15.50
2022-09-03T01:51:41.461Z,15.40
2022-09-03T01:54:29.470Z,15.40
2022-09-03T01:57:05.035Z,15.50
2022-09-03T01:59:44.008Z,15.40
2022-09-03T02:02:31.702Z,15.50
2022-09-03T02:05:11.158Z,15.50
2022-09-03T02:07:44.002Z,15.50
2022-09-03T02:10:22.384Z,15.50
2022-09-03T02:12:54.691Z,15.50
2022-09-03T02:15:25.430Z,15.40
2022-09-03T02:17:57.052Z,15.40
2022-09-03T02:20:28.895Z,15.40
2022-09-03T02:22:58.036Z,15.40
2022-09-03T02:25:31.210Z,15.40
2022-09-03T02:27:58.100Z,15.40
2022-09-03T02:30:25.083Z,15.40
2022-09-03T02:32:51.896Z,15.40
2022-09-03T02:35:18.701Z,15.40
2022-09-03T02:37:45.509Z,15.30
2022-09-03T02:40:12.330Z,15.30
2022-09-03T02:42:39.301Z,15.30
2022-09-03T02:45:12.267Z,15.20
2022-09-03T02:47:43.180Z,15.30
2022-09-03T02:50:10.576Z,15.30
2022-09-03T02:52:37.443Z,15.20
2022-09-03T02:55:04.527Z,15.30
2022-09-03T02:57:31.699Z,15.20
2022-09-03T02:59:58.498Z,15.20
2022-09-03T03:02:25.363Z,15.20
2022-09-03T03:04:52.757Z,15.30
2022-09-03T03:07:19.591Z,15.30
2022-09-03T03:09:46.384Z,15.30
2022-09-03T03:12:13.452Z,15.30
2022-09-03T03:14:40.304Z,15.30
2022-09-03T03:17:07.158Z,15.20
2022-09-03T03:19:34.183Z,15.20
2022-09-03T03:22:01.179Z,15.20
2022-09-03T03:24:27.967Z,15.20
2022-09-03T03:26:58.269Z,15.20
2022-09-03T03:29:25.275Z,15.20
2022-09-03T03:31:52.511Z,15.20
2022-09-03T03:34:19.352Z,15.30
2022-09-03T03:36:46.119Z,15.20
2022-09-03T03:39:13.201Z,15.20
2022-09-03T03:41:40.086Z,15.20
2022-09-03T03:44:08.564Z,15.20
2022-09-03T03:46:37.817Z,15.20
2022-09-03T03:49:06.687Z,15.20
2022-09-03T03:51:34.955Z,15.20
2022-09-03T03:54:04.984Z,15.10
2022-09-03T03:56:33.599Z,15.10
2022-09-03T03:59:00.628Z,15.10
2022-09-03T04:01:28.501Z,15.10
2022-09-03T04:03:56.687Z,15.00
2022-09-03T04:06:23.790Z,15.00
2022-09-03T04:08:51.223Z,15.00
2022-09-03T04:11:21.711Z,14.90
2022-09-03T04:13:49.733Z,14.90
2022-09-03T04:16:19.741Z,14.80
2022-09-03T04:18:49.185Z,14.70
2022-09-03T04:21:21.148Z,14.70
2022-09-03T04:23:49.484Z,14.60
2022-09-03T04:26:19.337Z,14.50
2022-09-03T04:28:46.308Z,14.50
2022-09-03T04:31:19.632Z,14.40
2022-09-03T04:33:46.859Z,14.30
2022-09-03T04:36:22.690Z,14.30
2022-09-03T04:38:51.432Z,14.20
2022-09-03T04:41:24.975Z,14.20
2022-09-03T04:43:52.996Z,14.10
2022-09-03T04:46:21.372Z,14.10
2022-09-03T04:48:53.034Z,14.10
2022-09-03T04:51:22.451Z,14.10
2022-09-03T04:53:54.573Z,14.00
2022-09-03T04:56:23.927Z,14.00
2022-09-03T04:58:55.714Z,13.90
2022-09-03T05:01:24.754Z,13.90
2022-09-03T05:03:54.344Z,13.90
2022-09-03T05:06:21.156Z,13.90
2022-09-03T05:08:52.903Z,13.90
2022-09-03T05:11:21.293Z,14.00
2022-09-03T05:13:49.865Z,14.00
2022-09-03T05:16:17.868Z,14.00
2022-09-03T05:18:46.880Z,14.00
2022-09-03T05:21:16.514Z,14.00
2022-09-03T05:23:45.622Z,14.00
2022-09-03T05:26:15.565Z,14.10
2022-09-03T05:28:44.153Z,14.10
2022-09-03T05:31:12.303Z,14.10
2022-09-03T05:33:42.432Z,14.20
2022-09-03T05:36:12.285Z,14.20
2022-09-03T05:38:39.809Z,14.20
2022-09-03T05:41:09.288Z,14.30
2022-09-03T05:43:36.885Z,14.30
2022-09-03T05:46:18.600Z,14.30
2022-09-03T05:48:45.622Z,14.40
2022-09-03T05:51:17.530Z,14.40
2022-09-03T05:53:46.516Z,14.50
2022-09-03T05:56:24.141Z,14.50
2022-09-03T05:58:53.500Z,14.60
2022-09-03T06:01:31.783Z,14.60
2022-09-03T06:04:05.749Z,14.60
2022-09-03T06:06:35.803Z,14.60
2022-09-03T06:09:05.904Z,14.70
2022-09-03T06:11:35.377Z,14.70
2022-09-03T06:14:05.869Z,14.70
2022-09-03T06:16:35.192Z,14.70
2022-09-03T06:19:03.709Z,14.70
2022-09-03T06:21:30.538Z,14.70
2022-09-03T06:23:59.799Z,14.70
2022-09-03T06:26:29.690Z,14.70
2022-09-03T06:28:57.438Z,14.70
2022-09-03T06:31:25.286Z,14.70
2022-09-03T06:33:54.524Z,14.80
2022-09-03T06:36:22.682Z,14.80
2022-09-03T06:38:52.474Z,14.80
2022-09-03T06:41:24.927Z,14.90
2022-09-03T06:44:04.265Z,14.90
2022-09-03T06:46:33.430Z,15.00
2022-09-03T06:49:00.527Z,15.00
2022-09-03T06:51:29.290Z,15.10
2022-09-03T06:54:03.311Z,15.20
2022-09-03T06:56:32.348Z,15.20
2022-09-03T06:59:05.371Z,15.30
2022-09-03T07:01:33.673Z,15.30
2022-09-03T07:04:03.523Z,15.40
2022-09-03T07:06:39.428Z,15.50
2022-09-03T07:09:07.425Z,15.50
2022-09-03T07:11:36.061Z,15.60
2022-09-03T07:14:04.968Z,15.70
2022-09-03T07:16:38.121Z,15.80
2022-09-03T07:19:06.040Z,15.90
2022-09-03T07:21:36.710Z,16.00
2022-09-03T07:24:05.597Z,16.10
2022-09-03T07:26:36.009Z,16.30
2022-09-03T07:29:02.943Z,16.40
2022-09-03T07:31:32.257Z,16.50
2022-09-03T07:34:10.137Z,16.60
2022-09-03T07:36:42.935Z,16.70
2022-09-03T07:39:14.363Z,16.70
2022-09-03T07:41:48.797Z,16.90
2022-09-03T07:44:19.546Z,16.90
2022-09-03T07:46:47.861Z,17.00
2022-09-03T07:49:15.133Z,17.10
2022-09-03T07:51:42.006Z,17.20
2022-09-03T07:54:11.349Z,17.30
2022-09-03T07:56:40.320Z,17.30
2022-09-03T07:59:07.964Z,17.40
2022-09-03T08:01:35.855Z,17.50
2022-09-03T08:04:04.334Z,17.60
2022-09-03T08:06:34.106Z,17.70
2022-09-03T08:09:05.327Z,17.80
2022-09-03T08:11:36.528Z,18.00
2022-09-03T08:14:08.632Z,18.10
2022-09-03T08:16:37.664Z,18.40
2022-09-03T08:19:05.174Z,19.00
2022-09-03T08:21:32.268Z,19.80
2022-09-03T08:24:08.023Z,21.20
2022-09-03T08:26:37.349Z,23.30
2022-09-03T08:29:05.212Z,25.40
2022-09-03T08:31:33.039Z,27.30
2022-09-03T08:34:06.795Z,28.80
2022-09-03T08:36:39.088Z,29.40
2022-09-03T08:39:10.878Z,29.40
2022-09-03T08:41:41.057Z,28.90
2022-09-03T08:44:49.485Z,28.60
2022-09-03T08:47:37.524Z,29.20
2022-09-03T08:50:23.724Z,30.30
2022-09-03T08:52:55.367Z,31.30
2022-09-03T08:55:53.768Z,32.00
2022-09-03T08:58:29.681Z,33.00
2022-09-03T09:01:13.159Z,33.10
2022-09-03T09:04:02.963Z,32.50
2022-09-03T09:06:36.032Z,31.40
2022-09-03T09:09:30.939Z,30.00
2022-09-03T09:12:21.856Z,29.00
2022-09-03T09:15:04.156Z,28.70
2022-09-03T09:18:01.317Z,28.80
2022-09-03T09:20:46.634Z,29.30
2022-09-03T09:23:34.917Z,30.30
2022-09-03T09:26:12.186Z,31.60
2022-09-03T09:28:39.592Z,32.80
2022-09-03T09:31:10.184Z,33.90
2022-09-03T09:33:37.715Z,34.70
2022-09-03T09:36:11.578Z,35.40
2022-09-03T09:38:39.648Z,35.90
2022-09-03T09:41:18.639Z,36.20
2022-09-03T09:43:49.324Z,36.60
2022-09-03T09:46:21.347Z,37.20
2022-09-03T09:48:51.849Z,37.50
2022-09-03T09:51:25.283Z,37.60
2022-09-03T09:54:01.557Z,37.90
2022-09-03T09:56:28.607Z,38.00
2022-09-03T09:59:15.418Z,38.30
2022-09-03T10:01:44.982Z,38.30
2022-09-03T10:04:33.401Z,38.40
2022-09-03T10:07:31.829Z,38.40
2022-09-03T10:10:20.972Z,38.60
2022-09-03T10:12:59.199Z,39.00
2022-09-03T10:15:45.134Z,39.20
2022-09-03T10:18:41.892Z,39.50
2022-09-03T10:21:15.636Z,39.60
2022-09-03T10:24:00.164Z,39.60
2022-09-03T10:26:32.405Z,39.50
2022-09-03T10:29:05.899Z,39.30
2022-09-03T10:31:44.707Z,39.40
2022-09-03T10:34:23.320Z,39.60
2022-09-03T10:37:18.444Z,39.70
2022-09-03T10:39:56.765Z,39.70
2022-09-03T10:43:12.231Z,39.70
2022-09-03T10:46:11.419Z,39.90
2022-09-03T10:48:54.042Z,39.90
2022-09-03T10:51:51.589Z,40.00
2022-09-03T10:54:43.178Z,40.10
2022-09-03T10:57:16.012Z,39.90
2022-09-03T11:00:03.957Z,39.40
2022-09-03T11:02:49.461Z,39.50
2022-09-03T11:05:22.148Z,39.50
2022-09-03T11:08:13.680Z,39.40
2022-09-03T11:11:09.399Z,39.60
2022-09-03T11:13:48.468Z,40.00
2022-09-03T11:16:22.769Z,40.50
2022-09-03T11:19:02.592Z,40.40
2022-09-03T11:21:31.610Z,40.20
2022-09-03T11:24:15.262Z,40.10
2022-09-03T11:26:59.853Z,40.10
2022-09-03T11:29:47.221Z,40.10
2022-09-03T11:32:40.815Z,40.30
2022-09-03T11:35:25.603Z,40.30
2022-09-03T11:38:31.251Z,40.20
2022-09-03T11:41:03.758Z,40.30
2022-09-03T11:43:35.775Z,40.10
2022-09-03T11:46:25.865Z,40.30
2022-09-03T11:49:09.304Z,40.70
2022-09-03T11:51:38.169Z,40.70
2022-09-03T11:54:14.116Z,40.70
2022-09-03T11:56:42.195Z,40.40
2022-09-03T11:59:17.226Z,40.40
2022-09-03T12:02:15.367Z,40.40
2022-09-03T12:05:11.661Z,40.60
2022-09-03T12:07:44.973Z,40.80
2022-09-03T12:10:20.388Z,40.70
2022-09-03T12:13:05.691Z,40.80
2022-09-03T12:16:08.614Z,41.10
2022-09-03T12:18:37.090Z,41.30
2022-09-03T12:21:08.420Z,41.20
2022-09-03T12:23:44.505Z,40.80
2022-09-03T12:26:24.574Z,40.60
2022-09-03T12:28:59.847Z,40.60
2022-09-03T12:31:30.118Z,40.50
2022-09-03T12:34:00.882Z,40.70
2022-09-03T12:36:54.052Z,40.90
2022-09-03T12:42:35.353Z,41.50
2022-09-03T12:45:07.263Z,41.70
2022-09-03T12:47:39.749Z,42.00
2022-09-03T12:50:08.790Z,42.00
2022-09-03T12:52:46.863Z,41.50
2022-09-03T12:55:28.675Z,41.30
2022-09-03T12:58:13.580Z,41.50
2022-09-03T13:00:56.514Z,41.70
2022-09-03T13:03:29.982Z,41.70
2022-09-03T13:06:09.206Z,41.60
2022-09-03T13:08:45.495Z,41.50
2022-09-03T13:11:20.349Z,41.30
2022-09-03T13:13:55.401Z,40.90
2022-09-03T13:16:46.364Z,40.60
2022-09-03T13:19:46.816Z,40.40
2022-09-03T13:22:56.073Z,40.20
2022-09-03T13:25:52.446Z,39.90
2022-09-03T13:28:29.840Z,40.10
2022-09-03T13:31:27.809Z,40.30
2022-09-03T13:34:12.146Z,40.20
2022-09-03T13:36:50.376Z,40.50
2022-09-03T13:39:25.383Z,40.70
2022-09-03T13:42:08.024Z,40.90
2022-09-03T13:45:06.706Z,40.60
2022-09-03T13:48:11.256Z,40.30
2022-09-03T13:50:46.134Z,40.00
2022-09-03T13:53:26.432Z,39.80
2022-09-03T13:55:57.833Z,39.80
2022-09-03T13:58:46.609Z,39.80
2022-09-03T14:02:10.806Z,39.70
2022-09-03T14:04:43.521Z,39.50
2022-09-03T14:07:18.784Z,39.50
2022-09-03T14:09:59.690Z,39.50
2022-09-03T14:12:46.671Z,39.50
2022-09-03T14:15:35.165Z,39.40
2022-09-03T14:18:23.756Z,39.20
2022-09-03T14:21:03.079Z,38.60
2022-09-03T14:23:51.306Z,38.40
2022-09-03T14:26:38.578Z,38.10
2022-09-03T14:29:12.393Z,38.00
2022-09-03T14:32:06.991Z,37.70
2022-09-03T14:34:44.747Z,37.10
2022-09-03T14:37:23.839Z,36.00
2022-09-03T14:40:13.610Z,34.90
2022-09-03T14:42:46.801Z,33.80
2022-09-03T14:45:25.407Z,32.80
2022-09-03T14:48:02.590Z,31.90
2022-09-03T14:50:43.351Z,31.10
2022-09-03T14:53:55.718Z,30.50
2022-09-03T14:56:40.745Z,29.90
2022-09-03T14:59:10.579Z,29.50
2022-09-03T15:01:39.333Z,29.30
2022-09-03T15:04:44.348Z,29.20
2022-09-03T15:07:44.409Z,29.20
2022-09-03T15:10:21.238Z,29.00
2022-09-03T15:12:59.647Z,28.80
2022-09-03T15:15:47.289Z,28.50
2022-09-03T15:18:29.751Z,28.20
2022-09-03T15:21:29.352Z,28.00
2022-09-03T15:24:24.340Z,27.80
2022-09-03T15:27:16.413Z,27.70
2022-09-03T15:30:19.257Z,27.70
2022-09-03T15:33:18.737Z,27.80
2022-09-03T15:35:58.018Z,27.90
2022-09-03T15:38:40.113Z,28.00
2022-09-03T15:41:40.214Z,28.00
2022-09-03T15:44:19.475Z,28.00
2022-09-03T15:47:12.190Z,27.90
2022-09-03T15:50:01.814Z,27.80
2022-09-03T15:52:53.511Z,27.80
2022-09-03T15:55:29.714Z,27.70
2022-09-03T15:58:10.415Z,27.60
2022-09-03T16:01:00.292Z,27.60
2022-09-03T16:03:46.866Z,27.50
2022-09-03T16:06:39.047Z,27.40
2022-09-03T16:09:22.515Z,27.30
2022-09-03T16:12:15.991Z,27.20
2022-09-03T16:15:04.613Z,27.00
2022-09-03T16:17:56.917Z,26.90
2022-09-03T16:20:48.096Z,26.80
2022-09-03T16:23:54.525Z,26.60
2022-09-03T16:26:32.047Z,26.50
2022-09-03T16:29:14.292Z,26.50
2022-09-03T16:32:01.894Z,26.50
2022-09-03T16:35:13.169Z,26.40
2022-09-03T16:37:45.957Z,26.30
2022-09-03T16:40:26.599Z,26.20
2022-09-03T16:43:39.543Z,26.20
2022-09-03T16:46:27.683Z,26.10
2022-09-03T16:49:12.601Z,26.00
2022-09-03T16:51:57.025Z,25.80
2022-09-03T16:54:58.678Z,25.70
2022-09-03T16:57:54.693Z,25.60
2022-09-03T17:00:22.126Z,25.50
2022-09-03T17:02:48.996Z,25.40
2022-09-03T17:05:45.901Z,25.30
2022-09-03T17:08:22.698Z,25.20
2022-09-03T17:11:00.547Z,25.20
2022-09-03T17:13:48.067Z,25.10
2022-09-03T17:16:37.286Z,25.00
2022-09-03T17:19:25.995Z,24.90
2022-09-03T17:21:59.270Z,24.80
2022-09-03T17:24:33.682Z,24.70
2022-09-03T17:27:32.694Z,24.60
2022-09-03T17:30:02.668Z,24.40
2022-09-03T17:32:57.347Z,24.30
2022-09-03T17:35:27.333Z,24.20
2022-09-03T17:38:09.249Z,24.00
2022-09-03T17:40:47.787Z,23.90
2022-09-03T17:43:23.785Z,23.80
2022-09-03T17:46:35.020Z,23.60
2022-09-03T17:49:06.903Z,23.50
2022-09-03T17:51:51.821Z,23.40
2022-09-03T17:54:32.316Z,23.30
2022-09-03T17:57:19.996Z,23.10
2022-09-03T18:00:05.975Z,23.00
2022-09-03T18:02:45.466Z,22.80
2022-09-03T18:05:19.321Z,22.70
2022-09-03T18:07:55.969Z,22.70
2022-09-03T18:10:30.055Z,22.50
2022-09-03T18:13:13.537Z,22.50
2022-09-03T18:15:57.372Z,22.30
2022-09-03T18:18:29.672Z,22.30
2022-09-03T18:21:25.567Z,22.20
2022-09-03T18:24:24.669Z,22.20
2022-09-03T18:27:17.173Z,22.10
2022-09-03T18:30:25.551Z,22.00
2022-09-03T18:33:11.020Z,21.90
2022-09-03T18:35:56.741Z,21.80
2022-09-03T18:38:45.242Z,21.80
2022-09-03T18:41:46.046Z,21.70
2022-09-03T18:45:21.673Z,21.70
2022-09-03T18:48:23.113Z,21.60
2022-09-03T18:51:24.290Z,21.60
2022-09-03T18:55:03.848Z,21.50
2022-09-03T18:57:50.679Z,21.50
2022-09-03T19:00:36.675Z,21.40
2022-09-03T19:03:34.103Z,21.40
2022-09-03T19:06:56.221Z,21.30
2022-09-03T19:09:53.221Z,21.30
2022-09-03T19:13:00.743Z,21.20
2022-09-03T19:16:00.842Z,21.10
2022-09-03T19:19:14.142Z,21.10
2022-09-03T19:22:09.844Z,21.00
2022-09-03T19:24:55.118Z,20.90
2022-09-03T19:27:57.249Z,20.80
2022-09-03T19:31:11.122Z,20.80
2022-09-03T19:34:27.518Z,20.70
2022-09-03T19:37:46.644Z,20.70
2022-09-03T19:41:08.700Z,20.60
2022-09-03T19:44:27.565Z,20.60
2022-09-03T19:47:19.344Z,20.50
2022-09-03T19:50:31.046Z,20.40
2022-09-03T19:53:23.497Z,20.30
2022-09-03T19:56:13.603Z,20.30
2022-09-03T19:59:06.725Z,20.20
2022-09-03T20:01:54.470Z,20.10
2022-09-03T20:04:48.349Z,20.10
2022-09-03T20:07:34.705Z,20.00
2022-09-03T20:10:23.494Z,19.90
2022-09-03T20:13:06.580Z,19.90
2022-09-03T20:15:59.341Z,19.80
2022-09-03T20:18:32.010Z,19.80
2022-09-03T20:21:27.541Z,19.80
2022-09-03T20:24:00.101Z,19.80
2022-09-03T20:26:37.215Z,19.70
2022-09-03T20:29:18.824Z,19.70
2022-09-03T20:31:52.984Z,19.60
2022-09-03T20:34:25.864Z,19.60
2022-09-03T20:37:01.699Z,19.50
2022-09-03T20:39:34.982Z,19.50
2022-09-03T20:42:40.864Z,19.40
2022-09-03T20:45:10.772Z,19.40
2022-09-03T20:48:23.790Z,19.30
2022-09-03T20:51:20.257Z,19.30
2022-09-03T20:54:13.389Z,19.20
2022-09-03T20:56:59.514Z,19.20
2022-09-03T20:59:33.943Z,19.10
2022-09-03T21:02:10.598Z,19.10
2022-09-03T21:05:13.003Z,19.00
2022-09-03T21:08:19.044Z,18.90
2022-09-03T21:10:57.145Z,18.90
2022-09-03T21:13:38.241Z,18.80
2022-09-03T21:16:32.001Z,18.80
2022-09-03T21:19:29.753Z,18.70
2022-09-03T21:22:06.614Z,18.70
2022-09-03T21:24:53.891Z,18.70
2022-09-03T21:27:25.841Z,18.60
2022-09-03T21:30:04.873Z,18.60
2022-09-03T21:33:03.727Z,18.60
2022-09-03T21:35:37.999Z,18.60
2022-09-03T21:38:08.324Z,18.50
2022-09-03T21:40:43.654Z,18.60
2022-09-03T21:43:40.045Z,18.50
2022-09-03T21:46:26.890Z,18.50
2022-09-03T21:48:58.525Z,18.40
2022-09-03T21:51:31.494Z,18.40
2022-09-03T21:54:10.571Z,18.40
2022-09-03T21:56:55.548Z,18.30
2022-09-03T21:59:40.323Z,18.30
2022-09-03T22:02:25.324Z,18.30
2022-09-03T22:04:53.521Z,18.20
2022-09-03T22:07:45.771Z,18.20
2022-09-03T22:10:32.658Z,18.20
2022-09-03T22:13:17.698Z,18.10
2022-09-03T22:15:51.366Z,18.00
2022-09-03T22:18:29.917Z,18.00
2022-09-03T22:21:13.293Z,17.90
2022-09-03T22:23:55.437Z,18.00
2022-09-03T22:27:00.922Z,17.90
2022-09-03T22:29:35.951Z,17.90
2022-09-03T22:32:26.202Z,17.80
2022-09-03T22:35:13.459Z,17.80
2022-09-03T22:37:47.175Z,17.80
2022-09-03T22:40:45.836Z,17.70
2022-09-03T22:43:38.363Z,17.70
2022-09-03T22:46:23.591Z,17.60
2022-09-03T22:49:12.187Z,17.60
2022-09-03T22:51:45.055Z,17.60
2022-09-03T22:54:44.126Z,17.60
2022-09-03T22:57:13.068Z,17.50
2022-09-03T22:59:45.494Z,17.50
2022-09-03T23:02:26.232Z,17.50
2022-09-03T23:05:23.488Z,17.40
2022-09-03T23:08:40.248Z,17.30
2022-09-03T23:11:25.158Z,17.30
2022-09-03T23:13:57.673Z,17.30
2022-09-03T23:16:37.769Z,17.20
2022-09-03T23:21:56.622Z,17.10
2022-09-03T23:24:42.048Z,17.10
2022-09-03T23:27:14.871Z,17.00
2022-09-03T23:29:43.946Z,17.00
2022-09-03T23:32:10.784Z,16.90
2022-09-03T23:34:40.612Z,16.90
2022-09-03T23:37:33.908Z,16.80
2022-09-03T23:40:25.764Z,16.80
2022-09-03T23:43:22.576Z,16.70
2022-09-03T23:46:07.952Z,16.70
2022-09-03T23:48:41.459Z,16.60
2022-09-03T23:51:35.748Z,16.70
2022-09-03T23:54:11.048Z,16.60
2022-09-03T23:56:47.690Z,16.60
2022-09-03T23:59:49.801Z,16.50
